sensor_id;sensor_type;location;lat;lon;timestamp;P1;durP1;ratioP1;P2;durP2;ratioP2
3571;SDS011;7958;53.024;12.970;2022-09-12T00:00:38;1.80;;;1.70;;
3571;SDS011;7958;53.024;12.970;2022-09-12T00:03:05;1.83;;;1.73;;
3571;SDS011;7958;53.024;12.970;2022-09-12T00:05:33;3.40;;;1.50;;
3571;SDS011;7958;53.024;12.970;2022-09-12T00:08:00;1.77;;;1.67;;
3571;SDS011;7958;53.024;12.970;2022-09-12T00:10:28;1.80;;;1.70;;
3571;SDS011;7958;53.024;12.970;2022-09-12T00:12:55;2.20;;;1.77;;
3571;SDS011;7958;53.024;12.970;2022-09-12T00:15:21;1.90;;;1.80;;
3571;SDS011;7958;53.024;12.970;2022-09-12T00:17:48;1.80;;;1.70;;
3571;SDS011;7958;53.024;12.970;2022-09-12T00:20:15;1.80;;;1.70;;
3571;SDS011;7958;53.024;12.970;2022-09-12T00:22:43;1.90;;;1.80;;
3571;SDS011;7958;53.024;12.970;2022-09-12T00:25:09;1.70;;;1.60;;
3571;SDS011;7958;53.024;12.970;2022-09-12T00:27:37;2.37;;;1.80;;
3571;SDS011;7958;53.024;12.970;2022-09-12T00:30:05;1.93;;;1.83;;
3571;SDS011;7958;53.024;12.970;2022-09-12T00:32:32;1.60;;;1.50;;
3571;SDS011;7958;53.024;12.970;2022-09-12T00:34:59;1.73;;;1.63;;
3571;SDS011;7958;53.024;12.970;2022-09-12T00:37:26;3.73;;;1.70;;
3571;SDS011;7958;53.024;12.970;2022-09-12T00:39:54;2.20;;;1.67;;
3571;SDS011;7958;53.024;12.970;2022-09-12T00:42:21;1.43;;;1.43;;
3571;SDS011;7958;53.024;12.970;2022-09-12T00:44:49;1.70;;;1.60;;
3571;SDS011;7958;53.024;12.970;2022-09-12T00:47:18;1.83;;;1.60;;
3571;SDS011;7958;53.024;12.970;2022-09-12T00:49:48;1.93;;;1.60;;
3571;SDS011;7958;53.024;12.970;2022-09-12T00:52:19;1.67;;;1.57;;
3571;SDS011;7958;53.024;12.970;2022-09-12T00:54:51;2.63;;;1.57;;
3571;SDS011;7958;53.024;12.970;2022-09-12T00:57:21;4.40;;;1.73;;
3571;SDS011;7958;53.024;12.970;2022-09-12T00:59:49;2.03;;;1.93;;
3571;SDS011;7958;53.024;12.970;2022-09-12T01:02:17;1.53;;;1.47;;
3571;SDS011;7958;53.024;12.970;2022-09-12T01:04:45;1.50;;;1.50;;
3571;SDS011;7958;53.024;12.970;2022-09-12T01:07:13;1.80;;;1.70;;
3571;SDS011;7958;53.024;12.970;2022-09-12T01:09:40;1.60;;;1.50;;
3571;SDS011;7958;53.024;12.970;2022-09-12T01:12:09;2.20;;;1.77;;
3571;SDS011;7958;53.024;12.970;2022-09-12T01:14:36;1.47;;;1.47;;
3571;SDS011;7958;53.024;12.970;2022-09-12T01:17:03;2.10;;;1.90;;
3571;SDS011;7958;53.024;12.970;2022-09-12T01:22:27;1.40;;;1.40;;
3571;SDS011;7958;53.024;12.970;2022-09-12T01:25:07;1.50;;;1.40;;
3571;SDS011;7958;53.024;12.970;2022-09-12T01:27:42;1.87;;;1.77;;
3571;SDS011;7958;53.024;12.970;2022-09-12T01:30:20;1.40;;;1.30;;
3571;SDS011;7958;53.024;12.970;2022-09-12T01:32:52;1.30;;;1.30;;
3571;SDS011;7958;53.024;12.970;2022-09-12T01:35:26;1.53;;;1.43;;
3571;SDS011;7958;53.024;12.970;2022-09-12T01:38:00;1.90;;;1.63;;
3571;SDS011;7958;53.024;12.970;2022-09-12T01:40:36;1.40;;;1.40;;
3571;SDS011;7958;53.024;12.970;2022-09-12T01:43:08;2.20;;;1.70;;
3571;SDS011;7958;53.024;12.970;2022-09-12T01:45:45;1.60;;;1.50;;
3571;SDS011;7958;53.024;12.970;2022-09-12T01:48:13;1.53;;;1.40;;
3571;SDS011;7958;53.024;12.970;2022-09-12T01:50:43;1.30;;;1.27;;
3571;SDS011;7958;53.024;12.970;2022-09-12T01:53:14;1.70;;;1.60;;
3571;SDS011;7958;53.024;12.970;2022-09-12T01:55:44;1.70;;;1.60;;
3571;SDS011;7958;53.024;12.970;2022-09-12T01:58:13;1.97;;;1.87;;
3571;SDS011;7958;53.024;12.970;2022-09-12T02:00:46;1.60;;;1.50;;
3571;SDS011;7958;53.024;12.970;2022-09-12T02:03:17;1.77;;;1.67;;
3571;SDS011;7958;53.024;12.970;2022-09-12T02:05:49;1.60;;;1.60;;
3571;SDS011;7958;53.024;12.970;2022-09-12T02:08:19;1.57;;;1.47;;
3571;SDS011;7958;53.024;12.970;2022-09-12T02:10:50;1.40;;;1.30;;
3571;SDS011;7958;53.024;12.970;2022-09-12T02:13:20;1.60;;;1.50;;
3571;SDS011;7958;53.024;12.970;2022-09-12T02:15:52;4.60;;;1.80;;
3571;SDS011;7958;53.024;12.970;2022-09-12T02:18:22;1.73;;;1.63;;
3571;SDS011;7958;53.024;12.970;2022-09-12T02:20:52;2.97;;;1.60;;
3571;SDS011;7958;53.024;12.970;2022-09-12T02:23:21;1.57;;;1.47;;
3571;SDS011;7958;53.024;12.970;2022-09-12T02:25:50;2.23;;;2.03;;
3571;SDS011;7958;53.024;12.970;2022-09-12T02:28:20;3.70;;;1.63;;
3571;SDS011;7958;53.024;12.970;2022-09-12T02:30:49;1.90;;;1.80;;
3571;SDS011;7958;53.024;12.970;2022-09-12T02:33:25;1.57;;;1.53;;
3571;SDS011;7958;53.024;12.970;2022-09-12T02:35:53;1.87;;;1.67;;
3571;SDS011;7958;53.024;12.970;2022-09-12T02:38:23;1.67;;;1.57;;
3571;SDS011;7958;53.024;12.970;2022-09-12T02:40:51;1.80;;;1.70;;
3571;SDS011;7958;53.024;12.970;2022-09-12T02:43:18;2.73;;;1.80;;
3571;SDS011;7958;53.024;12.970;2022-09-12T02:45:45;1.63;;;1.53;;
3571;SDS011;7958;53.024;12.970;2022-09-12T02:48:14;1.50;;;1.50;;
3571;SDS011;7958;53.024;12.970;2022-09-12T02:50:42;4.20;;;1.93;;
3571;SDS011;7958;53.024;12.970;2022-09-12T02:53:09;1.73;;;1.63;;
3571;SDS011;7958;53.024;12.970;2022-09-12T02:55:38;1.70;;;1.60;;
3571;SDS011;7958;53.024;12.970;2022-09-12T02:58:08;1.50;;;1.40;;
3571;SDS011;7958;53.024;12.970;2022-09-12T03:00:42;2.63;;;1.67;;
3571;SDS011;7958;53.024;12.970;2022-09-12T03:03:18;1.80;;;1.70;;
3571;SDS011;7958;53.024;12.970;2022-09-12T03:05:52;2.30;;;1.93;;
3571;SDS011;7958;53.024;12.970;2022-09-12T03:08:34;1.63;;;1.53;;
3571;SDS011;7958;53.024;12.970;2022-09-12T03:11:12;1.83;;;1.73;;
3571;SDS011;7958;53.024;12.970;2022-09-12T03:13:47;2.70;;;1.70;;
3571;SDS011;7958;53.024;12.970;2022-09-12T03:16:22;1.80;;;1.70;;
3571;SDS011;7958;53.024;12.970;2022-09-12T03:18:57;2.07;;;1.97;;
3571;SDS011;7958;53.024;12.970;2022-09-12T03:21:28;3.60;;;2.13;;
3571;SDS011;7958;53.024;12.970;2022-09-12T03:24:04;2.90;;;2.10;;
3571;SDS011;7958;53.024;12.970;2022-09-12T03:26:38;2.23;;;2.03;;
3571;SDS011;7958;53.024;12.970;2022-09-12T03:29:07;1.77;;;1.67;;
3571;SDS011;7958;53.024;12.970;2022-09-12T03:31:35;1.87;;;1.77;;
3571;SDS011;7958;53.024;12.970;2022-09-12T03:34:04;2.00;;;1.90;;
3571;SDS011;7958;53.024;12.970;2022-09-12T03:36:37;4.30;;;1.47;;
3571;SDS011;7958;53.024;12.970;2022-09-12T03:39:05;2.40;;;1.90;;
3571;SDS011;7958;53.024;12.970;2022-09-12T03:41:31;1.90;;;1.70;;
3571;SDS011;7958;53.024;12.970;2022-09-12T03:43:57;1.60;;;1.50;;
3571;SDS011;7958;53.024;12.970;2022-09-12T03:46:24;4.77;;;1.83;;
3571;SDS011;7958;53.024;12.970;2022-09-12T03:48:50;1.70;;;1.60;;
3571;SDS011;7958;53.024;12.970;2022-09-12T03:51:18;2.27;;;2.10;;
3571;SDS011;7958;53.024;12.970;2022-09-12T03:53:45;1.67;;;1.53;;
3571;SDS011;7958;53.024;12.970;2022-09-12T03:56:12;1.73;;;1.60;;
3571;SDS011;7958;53.024;12.970;2022-09-12T03:58:39;2.23;;;2.13;;
3571;SDS011;7958;53.024;12.970;2022-09-12T04:01:07;1.87;;;1.77;;
3571;SDS011;7958;53.024;12.970;2022-09-12T04:03:37;2.00;;;1.67;;
3571;SDS011;7958;53.024;12.970;2022-09-12T04:06:05;1.50;;;1.40;;
3571;SDS011;7958;53.024;12.970;2022-09-12T04:08:33;1.80;;;1.70;;
3571;SDS011;7958;53.024;12.970;2022-09-12T04:11:01;3.93;;;1.70;;
3571;SDS011;7958;53.024;12.970;2022-09-12T04:13:29;1.97;;;1.87;;
3571;SDS011;7958;53.024;12.970;2022-09-12T04:15:56;2.30;;;2.07;;
3571;SDS011;7958;53.024;12.970;2022-09-12T04:18:22;2.47;;;2.10;;
3571;SDS011;7958;53.024;12.970;2022-09-12T04:20:49;2.50;;;2.00;;
3571;SDS011;7958;53.024;12.970;2022-09-12T04:23:15;2.20;;;1.97;;
3571;SDS011;7958;53.024;12.970;2022-09-12T04:25:51;2.40;;;2.20;;
3571;SDS011;7958;53.024;12.970;2022-09-12T04:28:18;1.60;;;1.50;;
3571;SDS011;7958;53.024;12.970;2022-09-12T04:30:45;2.20;;;2.10;;
3571;SDS011;7958;53.024;12.970;2022-09-12T04:33:12;4.77;;;1.90;;
3571;SDS011;7958;53.024;12.970;2022-09-12T04:35:46;1.70;;;1.60;;
3571;SDS011;7958;53.024;12.970;2022-09-12T04:38:13;1.70;;;1.60;;
3571;SDS011;7958;53.024;12.970;2022-09-12T04:40:39;2.73;;;1.60;;
3571;SDS011;7958;53.024;12.970;2022-09-12T04:43:08;1.60;;;1.50;;
3571;SDS011;7958;53.024;12.970;2022-09-12T04:45:35;3.97;;;1.50;;
3571;SDS011;7958;53.024;12.970;2022-09-12T04:48:02;2.20;;;1.70;;
3571;SDS011;7958;53.024;12.970;2022-09-12T04:50:29;1.90;;;1.80;;
3571;SDS011;7958;53.024;12.970;2022-09-12T04:52:55;1.77;;;1.70;;
3571;SDS011;7958;53.024;12.970;2022-09-12T04:55:22;2.17;;;2.07;;
3571;SDS011;7958;53.024;12.970;2022-09-12T04:57:49;2.20;;;1.93;;
3571;SDS011;7958;53.024;12.970;2022-09-12T05:00:20;2.37;;;2.17;;
3571;SDS011;7958;53.024;12.970;2022-09-12T05:02:46;1.80;;;1.70;;
3571;SDS011;7958;53.024;12.970;2022-09-12T05:05:13;1.77;;;1.60;;
3571;SDS011;7958;53.024;12.970;2022-09-12T05:07:41;1.83;;;1.73;;
3571;SDS011;7958;53.024;12.970;2022-09-12T05:10:08;1.80;;;1.70;;
3571;SDS011;7958;53.024;12.970;2022-09-12T05:12:35;6.73;;;1.77;;
3571;SDS011;7958;53.024;12.970;2022-09-12T05:15:03;2.83;;;1.60;;
3571;SDS011;7958;53.024;12.970;2022-09-12T05:17:32;2.87;;;1.70;;
3571;SDS011;7958;53.024;12.970;2022-09-12T05:19:59;2.00;;;1.90;;
3571;SDS011;7958;53.024;12.970;2022-09-12T05:22:26;1.77;;;1.67;;
3571;SDS011;7958;53.024;12.970;2022-09-12T05:24:53;1.97;;;1.87;;
3571;SDS011;7958;53.024;12.970;2022-09-12T05:27:22;1.60;;;1.50;;
3571;SDS011;7958;53.024;12.970;2022-09-12T05:29:48;1.77;;;1.70;;
3571;SDS011;7958;53.024;12.970;2022-09-12T05:32:14;3.43;;;2.00;;
3571;SDS011;7958;53.024;12.970;2022-09-12T05:34:42;2.07;;;1.97;;
3571;SDS011;7958;53.024;12.970;2022-09-12T05:37:09;2.20;;;2.10;;
3571;SDS011;7958;53.024;12.970;2022-09-12T05:39:36;2.10;;;2.00;;
3571;SDS011;7958;53.024;12.970;2022-09-12T05:42:03;2.20;;;2.10;;
3571;SDS011;7958;53.024;12.970;2022-09-12T05:44:30;3.13;;;2.27;;
3571;SDS011;7958;53.024;12.970;2022-09-12T05:46:57;2.70;;;2.50;;
3571;SDS011;7958;53.024;12.970;2022-09-12T05:49:24;2.40;;;2.30;;
3571;SDS011;7958;53.024;12.970;2022-09-12T05:51:52;2.23;;;2.13;;
3571;SDS011;7958;53.024;12.970;2022-09-12T05:54:18;2.83;;;2.63;;
3571;SDS011;7958;53.024;12.970;2022-09-12T05:56:46;1.87;;;1.77;;
3571;SDS011;7958;53.024;12.970;2022-09-12T05:59:15;3.10;;;2.23;;
3571;SDS011;7958;53.024;12.970;2022-09-12T06:01:43;2.50;;;2.30;;
3571;SDS011;7958;53.024;12.970;2022-09-12T06:04:10;2.77;;;2.57;;
3571;SDS011;7958;53.024;12.970;2022-09-12T06:06:37;2.50;;;2.37;;
3571;SDS011;7958;53.024;12.970;2022-09-12T06:09:09;3.53;;;3.20;;
3571;SDS011;7958;53.024;12.970;2022-09-12T06:11:36;2.90;;;2.70;;
3571;SDS011;7958;53.024;12.970;2022-09-12T06:14:04;10.33;;;3.97;;
3571;SDS011;7958;53.024;12.970;2022-09-12T06:16:32;4.90;;;3.40;;
3571;SDS011;7958;53.024;12.970;2022-09-12T06:19:00;2.90;;;2.70;;
3571;SDS011;7958;53.024;12.970;2022-09-12T06:21:29;3.33;;;3.13;;
3571;SDS011;7958;53.024;12.970;2022-09-12T06:23:59;2.70;;;2.50;;
3571;SDS011;7958;53.024;12.970;2022-09-12T06:26:28;3.43;;;3.07;;
3571;SDS011;7958;53.024;12.970;2022-09-12T06:28:56;4.40;;;3.23;;
3571;SDS011;7958;53.024;12.970;2022-09-12T06:31:25;2.70;;;2.50;;
3571;SDS011;7958;53.024;12.970;2022-09-12T06:33:53;2.50;;;2.30;;
3571;SDS011;7958;53.024;12.970;2022-09-12T06:36:22;2.97;;;2.77;;
3571;SDS011;7958;53.024;12.970;2022-09-12T06:38:52;3.37;;;2.80;;
3571;SDS011;7958;53.024;12.970;2022-09-12T06:41:22;2.87;;;2.67;;
3571;SDS011;7958;53.024;12.970;2022-09-12T06:43:50;2.90;;;2.70;;
3571;SDS011;7958;53.024;12.970;2022-09-12T06:46:17;2.70;;;2.50;;
3571;SDS011;7958;53.024;12.970;2022-09-12T06:48:44;2.57;;;2.37;;
3571;SDS011;7958;53.024;12.970;2022-09-12T06:51:12;2.80;;;2.60;;
3571;SDS011;7958;53.024;12.970;2022-09-12T06:53:40;3.47;;;2.60;;
3571;SDS011;7958;53.024;12.970;2022-09-12T06:56:09;4.67;;;3.07;;
3571;SDS011;7958;53.024;12.970;2022-09-12T06:58:36;2.73;;;2.53;;
3571;SDS011;7958;53.024;12.970;2022-09-12T07:01:05;3.17;;;2.87;;
3571;SDS011;7958;53.024;12.970;2022-09-12T07:03:33;3.10;;;2.90;;
3571;SDS011;7958;53.024;12.970;2022-09-12T07:06:03;4.00;;;3.60;;
3571;SDS011;7958;53.024;12.970;2022-09-12T07:08:31;8.50;;;3.20;;
3571;SDS011;7958;53.024;12.970;2022-09-12T07:11:06;3.27;;;3.07;;
3571;SDS011;7958;53.024;12.970;2022-09-12T07:13:34;2.50;;;2.40;;
3571;SDS011;7958;53.024;12.970;2022-09-12T07:16:01;3.53;;;3.23;;
3571;SDS011;7958;53.024;12.970;2022-09-12T07:18:30;3.97;;;3.17;;
3571;SDS011;7958;53.024;12.970;2022-09-12T07:20:58;2.90;;;2.70;;
3571;SDS011;7958;53.024;12.970;2022-09-12T07:23:24;2.60;;;2.40;;
3571;SDS011;7958;53.024;12.970;2022-09-12T07:25:51;3.40;;;3.10;;
3571;SDS011;7958;53.024;12.970;2022-09-12T07:28:18;2.83;;;2.63;;
3571;SDS011;7958;53.024;12.970;2022-09-12T07:30:45;3.00;;;2.70;;
3571;SDS011;7958;53.024;12.970;2022-09-12T07:33:11;2.30;;;2.10;;
3571;SDS011;7958;53.024;12.970;2022-09-12T07:35:39;2.33;;;2.07;;
3571;SDS011;7958;53.024;12.970;2022-09-12T07:38:06;1.90;;;1.80;;
3571;SDS011;7958;53.024;12.970;2022-09-12T07:40:33;1.97;;;1.87;;
3571;SDS011;7958;53.024;12.970;2022-09-12T07:42:59;4.90;;;2.33;;
3571;SDS011;7958;53.024;12.970;2022-09-12T07:45:26;2.53;;;2.07;;
3571;SDS011;7958;53.024;12.970;2022-09-12T07:47:53;1.60;;;1.50;;
3571;SDS011;7958;53.024;12.970;2022-09-12T07:50:20;1.90;;;1.80;;
3571;SDS011;7958;53.024;12.970;2022-09-12T07:52:48;1.93;;;1.83;;
3571;SDS011;7958;53.024;12.970;2022-09-12T07:55:15;1.97;;;1.80;;
3571;SDS011;7958;53.024;12.970;2022-09-12T07:57:41;1.73;;;1.63;;
3571;SDS011;7958;53.024;12.970;2022-09-12T08:00:09;1.40;;;1.30;;
3571;SDS011;7958;53.024;12.970;2022-09-12T08:02:36;1.43;;;1.33;;
3571;SDS011;7958;53.024;12.970;2022-09-12T08:05:03;1.60;;;1.50;;
3571;SDS011;7958;53.024;12.970;2022-09-12T08:07:30;1.60;;;1.50;;
3571;SDS011;7958;53.024;12.970;2022-09-12T08:09:59;1.50;;;1.40;;
3571;SDS011;7958;53.024;12.970;2022-09-12T08:12:27;1.60;;;1.50;;
3571;SDS011;7958;53.024;12.970;2022-09-12T08:14:55;8.47;;;1.40;;
3571;SDS011;7958;53.024;12.970;2022-09-12T08:17:22;1.47;;;1.37;;
3571;SDS011;7958;53.024;12.970;2022-09-12T08:19:49;1.43;;;1.33;;
3571;SDS011;7958;53.024;12.970;2022-09-12T08:22:17;1.53;;;1.10;;
3571;SDS011;7958;53.024;12.970;2022-09-12T08:24:46;1.67;;;1.57;;
3571;SDS011;7958;53.024;12.970;2022-09-12T08:27:14;2.50;;;1.47;;
3571;SDS011;7958;53.024;12.970;2022-09-12T08:29:41;1.87;;;1.77;;
3571;SDS011;7958;53.024;12.970;2022-09-12T08:32:07;1.40;;;1.30;;
3571;SDS011;7958;53.024;12.970;2022-09-12T08:34:34;1.30;;;1.20;;
3571;SDS011;7958;53.024;12.970;2022-09-12T08:37:00;2.57;;;1.40;;
3571;SDS011;7958;53.024;12.970;2022-09-12T08:39:28;2.50;;;1.63;;
3571;SDS011;7958;53.024;12.970;2022-09-12T08:41:56;1.27;;;1.20;;
3571;SDS011;7958;53.024;12.970;2022-09-12T08:44:40;2.13;;;1.40;;
3571;SDS011;7958;53.024;12.970;2022-09-12T08:47:15;2.90;;;1.83;;
3571;SDS011;7958;53.024;12.970;2022-09-12T08:49:48;1.70;;;1.60;;
3571;SDS011;7958;53.024;12.970;2022-09-12T08:52:21;1.43;;;1.33;;
3571;SDS011;7958;53.024;12.970;2022-09-12T08:54:51;1.90;;;1.53;;
3571;SDS011;7958;53.024;12.970;2022-09-12T08:57:20;1.33;;;1.20;;
3571;SDS011;7958;53.024;12.970;2022-09-12T08:59:49;2.07;;;1.90;;
3571;SDS011;7958;53.024;12.970;2022-09-12T09:02:23;2.20;;;1.50;;
3571;SDS011;7958;53.024;12.970;2022-09-12T09:05:13;2.50;;;1.77;;
3571;SDS011;7958;53.024;12.970;2022-09-12T09:10:59;1.90;;;1.50;;
3571;SDS011;7958;53.024;12.970;2022-09-12T09:13:36;1.67;;;1.40;;
3571;SDS011;7958;53.024;12.970;2022-09-12T09:16:38;1.37;;;1.27;;
3571;SDS011;7958;53.024;12.970;2022-09-12T09:19:08;1.60;;;1.50;;
3571;SDS011;7958;53.024;12.970;2022-09-12T09:21:37;7.33;;;1.40;;
3571;SDS011;7958;53.024;12.970;2022-09-12T09:24:07;2.50;;;1.50;;
3571;SDS011;7958;53.024;12.970;2022-09-12T09:26:38;4.93;;;1.53;;
3571;SDS011;7958;53.024;12.970;2022-09-12T09:29:10;2.67;;;1.53;;
3571;SDS011;7958;53.024;12.970;2022-09-12T09:31:41;1.83;;;1.63;;
3571;SDS011;7958;53.024;12.970;2022-09-12T09:34:23;1.43;;;1.30;;
3571;SDS011;7958;53.024;12.970;2022-09-12T09:36:50;1.20;;;1.17;;
3571;SDS011;7958;53.024;12.970;2022-09-12T09:39:29;1.53;;;1.30;;
3571;SDS011;7958;53.024;12.970;2022-09-12T09:42:08;2.57;;;1.23;;
3571;SDS011;7958;53.024;12.970;2022-09-12T09:44:38;1.60;;;1.50;;
3571;SDS011;7958;53.024;12.970;2022-09-12T09:47:08;1.10;;;1.07;;
3571;SDS011;7958;53.024;12.970;2022-09-12T09:49:36;1.30;;;1.20;;
3571;SDS011;7958;53.024;12.970;2022-09-12T09:52:03;1.73;;;1.53;;
3571;SDS011;7958;53.024;12.970;2022-09-12T09:54:33;1.23;;;1.13;;
3571;SDS011;7958;53.024;12.970;2022-09-12T09:57:02;1.43;;;1.20;;
3571;SDS011;7958;53.024;12.970;2022-09-12T09:59:30;1.50;;;1.40;;
3571;SDS011;7958;53.024;12.970;2022-09-12T10:01:58;2.20;;;1.40;;
3571;SDS011;7958;53.024;12.970;2022-09-12T10:04:30;1.20;;;1.13;;
3571;SDS011;7958;53.024;12.970;2022-09-12T10:06:58;2.10;;;1.63;;
3571;SDS011;7958;53.024;12.970;2022-09-12T10:09:26;2.90;;;1.30;;
3571;SDS011;7958;53.024;12.970;2022-09-12T10:11:55;1.47;;;1.37;;
3571;SDS011;7958;53.024;12.970;2022-09-12T10:14:25;1.40;;;1.27;;
3571;SDS011;7958;53.024;12.970;2022-09-12T10:16:54;1.47;;;1.30;;
3571;SDS011;7958;53.024;12.970;2022-09-12T10:19:22;1.77;;;1.67;;
3571;SDS011;7958;53.024;12.970;2022-09-12T10:21:51;1.37;;;1.17;;
3571;SDS011;7958;53.024;12.970;2022-09-12T10:24:20;1.60;;;1.50;;
3571;SDS011;7958;53.024;12.970;2022-09-12T10:26:48;1.33;;;1.33;;
3571;SDS011;7958;53.024;12.970;2022-09-12T10:29:18;4.30;;;1.60;;
3571;SDS011;7958;53.024;12.970;2022-09-12T10:31:48;1.33;;;1.23;;
3571;SDS011;7958;53.024;12.970;2022-09-12T10:34:20;1.57;;;1.40;;
3571;SDS011;7958;53.024;12.970;2022-09-12T10:36:51;1.60;;;1.50;;
3571;SDS011;7958;53.024;12.970;2022-09-12T10:39:20;1.10;;;1.00;;
3571;SDS011;7958;53.024;12.970;2022-09-12T10:41:46;2.20;;;1.30;;
3571;SDS011;7958;53.024;12.970;2022-09-12T10:44:15;1.30;;;1.20;;
3571;SDS011;7958;53.024;12.970;2022-09-12T10:46:42;1.43;;;1.33;;
3571;SDS011;7958;53.024;12.970;2022-09-12T10:49:13;2.13;;;1.30;;
3571;SDS011;7958;53.024;12.970;2022-09-12T10:51:45;1.47;;;1.37;;
3571;SDS011;7958;53.024;12.970;2022-09-12T10:54:14;1.27;;;1.17;;
3571;SDS011;7958;53.024;12.970;2022-09-12T10:56:44;2.00;;;1.10;;
3571;SDS011;7958;53.024;12.970;2022-09-12T10:59:22;1.20;;;1.00;;
3571;SDS011;7958;53.024;12.970;2022-09-12T11:02:11;1.63;;;1.10;;
3571;SDS011;7958;53.024;12.970;2022-09-12T11:04:46;1.27;;;1.27;;
3571;SDS011;7958;53.024;12.970;2022-09-12T11:07:24;0.90;;;0.90;;
3571;SDS011;7958;53.024;12.970;2022-09-12T11:10:00;1.40;;;1.30;;
3571;SDS011;7958;53.024;12.970;2022-09-12T11:12:31;1.40;;;1.13;;
3571;SDS011;7958;53.024;12.970;2022-09-12T11:15:07;1.20;;;1.10;;
3571;SDS011;7958;53.024;12.970;2022-09-12T11:17:47;1.30;;;1.20;;
3571;SDS011;7958;53.024;12.970;2022-09-12T11:23:34;1.27;;;1.17;;
3571;SDS011;7958;53.024;12.970;2022-09-12T11:26:13;2.50;;;1.00;;
3571;SDS011;7958;53.024;12.970;2022-09-12T11:28:47;1.40;;;1.30;;
3571;SDS011;7958;53.024;12.970;2022-09-12T11:31:19;1.10;;;1.10;;
3571;SDS011;7958;53.024;12.970;2022-09-12T11:33:51;0.90;;;0.90;;
3571;SDS011;7958;53.024;12.970;2022-09-12T11:36:23;1.40;;;1.30;;
3571;SDS011;7958;53.024;12.970;2022-09-12T11:38:57;1.20;;;1.20;;
3571;SDS011;7958;53.024;12.970;2022-09-12T11:41:30;1.10;;;1.10;;
3571;SDS011;7958;53.024;12.970;2022-09-12T11:44:00;1.30;;;1.20;;
3571;SDS011;7958;53.024;12.970;2022-09-12T11:46:30;1.03;;;1.03;;
3571;SDS011;7958;53.024;12.970;2022-09-12T11:49:01;1.03;;;0.90;;
3571;SDS011;7958;53.024;12.970;2022-09-12T11:51:32;1.57;;;0.87;;
3571;SDS011;7958;53.024;12.970;2022-09-12T11:54:03;1.33;;;1.17;;
3571;SDS011;7958;53.024;12.970;2022-09-12T11:56:35;2.20;;;1.20;;
3571;SDS011;7958;53.024;12.970;2022-09-12T11:59:08;1.40;;;1.30;;
3571;SDS011;7958;53.024;12.970;2022-09-12T12:01:38;4.33;;;1.30;;
3571;SDS011;7958;53.024;12.970;2022-09-12T12:04:09;1.47;;;1.37;;
3571;SDS011;7958;53.024;12.970;2022-09-12T12:06:43;2.10;;;1.30;;
3571;SDS011;7958;53.024;12.970;2022-09-12T12:09:14;1.53;;;1.33;;
3571;SDS011;7958;53.024;12.970;2022-09-12T12:11:47;2.03;;;1.20;;
3571;SDS011;7958;53.024;12.970;2022-09-12T12:14:16;1.47;;;1.37;;
3571;SDS011;7958;53.024;12.970;2022-09-12T12:16:44;1.30;;;1.20;;
3571;SDS011;7958;53.024;12.970;2022-09-12T12:19:21;1.10;;;1.10;;
3571;SDS011;7958;53.024;12.970;2022-09-12T12:22:06;1.47;;;1.37;;
3571;SDS011;7958;53.024;12.970;2022-09-12T12:24:33;1.20;;;1.10;;
3571;SDS011;7958;53.024;12.970;2022-09-12T12:27:03;1.37;;;1.27;;
3571;SDS011;7958;53.024;12.970;2022-09-12T12:29:40;1.00;;;1.00;;
3571;SDS011;7958;53.024;12.970;2022-09-12T12:32:17;1.07;;;1.07;;
3571;SDS011;7958;53.024;12.970;2022-09-12T12:34:45;1.40;;;1.17;;
3571;SDS011;7958;53.024;12.970;2022-09-12T12:40:20;1.30;;;1.30;;
3571;SDS011;7958;53.024;12.970;2022-09-12T12:48:48;1.27;;;1.17;;
3571;SDS011;7958;53.024;12.970;2022-09-12T12:51:28;2.20;;;1.23;;
3571;SDS011;7958;53.024;12.970;2022-09-12T12:53:57;2.30;;;1.30;;
3571;SDS011;7958;53.024;12.970;2022-09-12T12:56:25;2.53;;;1.30;;
3571;SDS011;7958;53.024;12.970;2022-09-12T12:58:57;1.40;;;1.30;;
3571;SDS011;7958;53.024;12.970;2022-09-12T13:01:25;1.50;;;1.40;;
3571;SDS011;7958;53.024;12.970;2022-09-12T13:03:53;1.50;;;1.17;;
3571;SDS011;7958;53.024;12.970;2022-09-12T13:06:23;1.40;;;1.17;;
3571;SDS011;7958;53.024;12.970;2022-09-12T13:08:55;1.80;;;1.40;;
3571;SDS011;7958;53.024;12.970;2022-09-12T13:11:28;1.27;;;1.17;;
3571;SDS011;7958;53.024;12.970;2022-09-12T13:13:59;4.80;;;1.30;;
3571;SDS011;7958;53.024;12.970;2022-09-12T13:16:30;2.00;;;1.07;;
3571;SDS011;7958;53.024;12.970;2022-09-12T13:19:00;1.20;;;1.10;;
3571;SDS011;7958;53.024;12.970;2022-09-12T13:21:29;1.50;;;1.40;;
3571;SDS011;7958;53.024;12.970;2022-09-12T13:23:58;1.33;;;1.20;;
3571;SDS011;7958;53.024;12.970;2022-09-12T13:26:26;1.27;;;1.13;;
3571;SDS011;7958;53.024;12.970;2022-09-12T13:31:37;1.47;;;1.37;;
3571;SDS011;7958;53.024;12.970;2022-09-12T13:34:04;1.50;;;1.40;;
3571;SDS011;7958;53.024;12.970;2022-09-12T13:36:37;1.07;;;1.00;;
3571;SDS011;7958;53.024;12.970;2022-09-12T13:39:19;1.10;;;1.10;;
3571;SDS011;7958;53.024;12.970;2022-09-12T13:41:56;1.60;;;1.30;;
3571;SDS011;7958;53.024;12.970;2022-09-12T13:44:45;2.53;;;1.37;;
3571;SDS011;7958;53.024;12.970;2022-09-12T13:47:13;1.53;;;1.17;;
3571;SDS011;7958;53.024;12.970;2022-09-12T13:49:42;1.30;;;1.20;;
3571;SDS011;7958;53.024;12.970;2022-09-12T13:52:13;2.10;;;1.20;;
3571;SDS011;7958;53.024;12.970;2022-09-12T13:54:41;1.43;;;1.33;;
3571;SDS011;7958;53.024;12.970;2022-09-12T13:57:20;1.47;;;1.37;;
3571;SDS011;7958;53.024;12.970;2022-09-12T13:59:55;1.30;;;1.20;;
3571;SDS011;7958;53.024;12.970;2022-09-12T14:02:26;1.80;;;1.37;;
3571;SDS011;7958;53.024;12.970;2022-09-12T14:04:55;2.37;;;1.20;;
3571;SDS011;7958;53.024;12.970;2022-09-12T14:07:42;1.20;;;1.20;;
3571;SDS011;7958;53.024;12.970;2022-09-12T14:10:20;3.17;;;1.20;;
3571;SDS011;7958;53.024;12.970;2022-09-12T14:12:48;1.13;;;1.10;;
3571;SDS011;7958;53.024;12.970;2022-09-12T14:15:18;1.23;;;1.13;;
3571;SDS011;7958;53.024;12.970;2022-09-12T14:17:56;1.43;;;1.33;;
3571;SDS011;7958;53.024;12.970;2022-09-12T14:20:29;1.20;;;1.20;;
3571;SDS011;7958;53.024;12.970;2022-09-12T14:22:58;3.33;;;1.97;;
3571;SDS011;7958;53.024;12.970;2022-09-12T14:25:33;1.07;;;1.07;;
3571;SDS011;7958;53.024;12.970;2022-09-12T14:28:03;1.50;;;1.40;;
3571;SDS011;7958;53.024;12.970;2022-09-12T14:30:31;1.73;;;1.03;;
3571;SDS011;7958;53.024;12.970;2022-09-12T14:33:04;1.30;;;1.20;;
3571;SDS011;7958;53.024;12.970;2022-09-12T14:35:38;2.10;;;1.20;;
3571;SDS011;7958;53.024;12.970;2022-09-12T14:38:07;2.93;;;1.57;;
3571;SDS011;7958;53.024;12.970;2022-09-12T14:40:41;1.30;;;1.23;;
3571;SDS011;7958;53.024;12.970;2022-09-12T14:43:17;3.23;;;1.43;;
3571;SDS011;7958;53.024;12.970;2022-09-12T14:45:51;2.20;;;1.43;;
3571;SDS011;7958;53.024;12.970;2022-09-12T14:48:20;1.30;;;1.20;;
3571;SDS011;7958;53.024;12.970;2022-09-12T14:50:47;1.10;;;1.10;;
3571;SDS011;7958;53.024;12.970;2022-09-12T14:53:22;1.30;;;1.20;;
3571;SDS011;7958;53.024;12.970;2022-09-12T14:55:51;1.50;;;1.40;;
3571;SDS011;7958;53.024;12.970;2022-09-12T14:58:22;1.90;;;1.30;;
3571;SDS011;7958;53.024;12.970;2022-09-12T15:00:52;1.33;;;1.00;;
3571;SDS011;7958;53.024;12.970;2022-09-12T15:03:23;1.53;;;1.43;;
3571;SDS011;7958;53.024;12.970;2022-09-12T15:05:51;1.20;;;1.20;;
3571;SDS011;7958;53.024;12.970;2022-09-12T15:08:18;1.40;;;1.30;;
3571;SDS011;7958;53.024;12.970;2022-09-12T15:10:45;1.00;;;1.00;;
3571;SDS011;7958;53.024;12.970;2022-09-12T15:13:12;4.90;;;1.50;;
3571;SDS011;7958;53.024;12.970;2022-09-12T15:15:47;1.50;;;1.40;;
3571;SDS011;7958;53.024;12.970;2022-09-12T15:18:16;1.60;;;1.50;;
3571;SDS011;7958;53.024;12.970;2022-09-12T15:20:43;1.20;;;1.10;;
3571;SDS011;7958;53.024;12.970;2022-09-12T15:23:32;1.33;;;1.23;;
3571;SDS011;7958;53.024;12.970;2022-09-12T15:26:04;1.37;;;1.20;;
3571;SDS011;7958;53.024;12.970;2022-09-12T15:28:32;1.20;;;1.20;;
3571;SDS011;7958;53.024;12.970;2022-09-12T15:31:01;1.63;;;1.27;;
3571;SDS011;7958;53.024;12.970;2022-09-12T15:33:32;1.57;;;1.40;;
3571;SDS011;7958;53.024;12.970;2022-09-12T15:35:59;1.80;;;1.20;;
3571;SDS011;7958;53.024;12.970;2022-09-12T15:38:26;1.50;;;1.40;;